sensor_id;sensor_type;location;lat;lon;timestamp;P1;durP1;ratioP1;P2;durP2;ratioP2
71902;SDS011;59778;50.310;18.780;2023-04-24T00:01:17;27.80;;;12.87;;
71902;SDS011;59778;50.310;18.780;2023-04-24T00:16:40;23.03;;;10.60;;
71902;SDS011;59778;50.310;18.780;2023-04-24T00:32:01;23.20;;;10.17;;
71902;SDS011;59778;50.310;18.780;2023-04-24T00:47:23;18.20;;;8.53;;
71902;SDS011;59778;50.310;18.780;2023-04-24T01:02:46;15.73;;;7.50;;
71902;SDS011;59778;50.310;18.780;2023-04-24T01:18:08;15.67;;;7.70;;
71902;SDS011;59778;50.310;18.780;2023-04-24T01:33:29;18.03;;;8.57;;
71902;SDS011;59778;50.310;18.780;2023-04-24T01:48:50;19.33;;;8.10;;
71902;SDS011;59778;50.310;18.780;2023-04-24T02:04:13;13.90;;;7.37;;
71902;SDS011;59778;50.310;18.780;2023-04-24T02:19:35;14.33;;;7.00;;
71902;SDS011;59778;50.310;18.780;2023-04-24T02:34:57;17.50;;;7.33;;
71902;SDS011;59778;50.310;18.780;2023-04-24T02:50:18;13.17;;;6.33;;
71902;SDS011;59778;50.310;18.780;2023-04-24T03:05:39;11.87;;;5.60;;
71902;SDS011;59778;50.310;18.780;2023-04-24T03:21:01;13.03;;;6.87;;
71902;SDS011;59778;50.310;18.780;2023-04-24T03:36:24;12.63;;;6.00;;
71902;SDS011;59778;50.310;18.780;2023-04-24T03:51:47;11.57;;;5.70;;
71902;SDS011;59778;50.310;18.780;2023-04-24T04:07:08;18.67;;;6.30;;
71902;SDS011;59778;50.310;18.780;2023-04-24T04:22:29;15.50;;;6.10;;
71902;SDS011;59778;50.310;18.780;2023-04-24T04:37:51;11.90;;;5.70;;
71902;SDS011;59778;50.310;18.780;2023-04-24T04:53:12;10.40;;;5.33;;
71902;SDS011;59778;50.310;18.780;2023-04-24T05:08:33;11.77;;;5.00;;
71902;SDS011;59778;50.310;18.780;2023-04-24T05:23:55;13.70;;;5.00;;
71902;SDS011;59778;50.310;18.780;2023-04-24T05:39:16;10.30;;;5.20;;
71902;SDS011;59778;50.310;18.780;2023-04-24T05:54:37;11.73;;;4.90;;
71902;SDS011;59778;50.310;18.780;2023-04-24T06:09:59;10.27;;;4.03;;
71902;SDS011;59778;50.310;18.780;2023-04-24T06:25:20;10.27;;;4.30;;
71902;SDS011;59778;50.310;18.780;2023-04-24T06:40:41;10.87;;;4.17;;
71902;SDS011;59778;50.310;18.780;2023-04-24T06:56:03;11.37;;;4.07;;
71902;SDS011;59778;50.310;18.780;2023-04-24T07:11:25;8.80;;;4.10;;
71902;SDS011;59778;50.310;18.780;2023-04-24T07:26:50;7.80;;;3.80;;
71902;SDS011;59778;50.310;18.780;2023-04-24T07:42:12;7.77;;;4.07;;
71902;SDS011;59778;50.310;18.780;2023-04-24T07:57:34;8.83;;;4.23;;
71902;SDS011;59778;50.310;18.780;2023-04-24T08:12:55;8.40;;;3.63;;
71902;SDS011;59778;50.310;18.780;2023-04-24T08:28:16;9.30;;;4.40;;
71902;SDS011;59778;50.310;18.780;2023-04-24T08:43:41;11.43;;;5.10;;
71902;SDS011;59778;50.310;18.780;2023-04-24T08:59:03;9.03;;;4.30;;
71902;SDS011;59778;50.310;18.780;2023-04-24T09:14:25;8.57;;;4.20;;
71902;SDS011;59778;50.310;18.780;2023-04-24T09:29:56;9.40;;;5.03;;
71902;SDS011;59778;50.310;18.780;2023-04-24T09:45:18;10.07;;;3.80;;
71902;SDS011;59778;50.310;18.780;2023-04-24T10:00:40;9.17;;;3.77;;
71902;SDS011;59778;50.310;18.780;2023-04-24T10:16:02;7.20;;;3.60;;
71902;SDS011;59778;50.310;18.780;2023-04-24T10:31:24;7.67;;;3.60;;
71902;SDS011;59778;50.310;18.780;2023-04-24T10:46:46;9.50;;;4.10;;
71902;SDS011;59778;50.310;18.780;2023-04-24T11:02:16;9.63;;;3.63;;
71902;SDS011;59778;50.310;18.780;2023-04-24T11:17:38;8.50;;;3.87;;
71902;SDS011;59778;50.310;18.780;2023-04-24T11:33:03;7.43;;;3.93;;
71902;SDS011;59778;50.310;18.780;2023-04-24T11:48:26;9.60;;;4.00;;
71902;SDS011;59778;50.310;18.780;2023-04-24T12:03:48;8.07;;;4.30;;
71902;SDS011;59778;50.310;18.780;2023-04-24T12:19:11;7.50;;;4.40;;
71902;SDS011;59778;50.310;18.780;2023-04-24T12:34:33;6.10;;;3.70;;
71902;SDS011;59778;50.310;18.780;2023-04-24T12:49:54;7.23;;;3.70;;
71902;SDS011;59778;50.310;18.780;2023-04-24T13:05:16;7.57;;;3.70;;
71902;SDS011;59778;50.310;18.780;2023-04-24T13:20:37;8.27;;;3.90;;
71902;SDS011;59778;50.310;18.780;2023-04-24T13:35:59;8.27;;;4.03;;
71902;SDS011;59778;50.310;18.780;2023-04-24T13:51:20;8.20;;;4.17;;
71902;SDS011;59778;50.310;18.780;2023-04-24T14:06:43;11.10;;;5.33;;
71902;SDS011;59778;50.310;18.780;2023-04-24T14:22:05;9.70;;;5.40;;
71902;SDS011;59778;50.310;18.780;2023-04-24T14:37:26;10.63;;;5.30;;
71902;SDS011;59778;50.310;18.780;2023-04-24T14:52:47;8.33;;;4.03;;
71902;SDS011;59778;50.310;18.780;2023-04-24T15:08:09;8.13;;;3.67;;
71902;SDS011;59778;50.310;18.780;2023-04-24T15:23:30;7.47;;;3.43;;
71902;SDS011;59778;50.310;18.780;2023-04-24T15:38:52;19.83;;;4.27;;
71902;SDS011;59778;50.310;18.780;2023-04-24T15:54:13;9.27;;;4.07;;
71902;SDS011;59778;50.310;18.780;2023-04-24T16:09:35;11.73;;;5.37;;
71902;SDS011;59778;50.310;18.780;2023-04-24T16:24:56;11.17;;;5.50;;
71902;SDS011;59778;50.310;18.780;2023-04-24T16:40:18;10.47;;;5.57;;
71902;SDS011;59778;50.310;18.780;2023-04-24T16:55:40;16.07;;;8.97;;
71902;SDS011;59778;50.310;18.780;2023-04-24T17:11:02;16.97;;;8.57;;
71902;SDS011;59778;50.310;18.780;2023-04-24T17:26:23;13.67;;;7.53;;
71902;SDS011;59778;50.310;18.780;2023-04-24T17:41:44;14.27;;;8.10;;
71902;SDS011;59778;50.310;18.780;2023-04-24T17:57:06;14.00;;;7.77;;
71902;SDS011;59778;50.310;18.780;2023-04-24T18:12:27;17.30;;;10.73;;
71902;SDS011;59778;50.310;18.780;2023-04-24T18:27:49;19.47;;;12.03;;
71902;SDS011;59778;50.310;18.780;2023-04-24T18:43:10;27.20;;;14.10;;
71902;SDS011;59778;50.310;18.780;2023-04-24T18:58:32;35.60;;;19.63;;
71902;SDS011;59778;50.310;18.780;2023-04-24T19:13:54;33.37;;;18.53;;
71902;SDS011;59778;50.310;18.780;2023-04-24T19:29:17;27.37;;;16.50;;
71902;SDS011;59778;50.310;18.780;2023-04-24T19:44:38;26.20;;;15.73;;
71902;SDS011;59778;50.310;18.780;2023-04-24T20:00:00;27.50;;;15.73;;
71902;SDS011;59778;50.310;18.780;2023-04-24T20:15:21;22.93;;;13.83;;
71902;SDS011;59778;50.310;18.780;2023-04-24T20:30:43;26.03;;;15.13;;
71902;SDS011;59778;50.310;18.780;2023-04-24T20:46:04;17.27;;;10.33;;
71902;SDS011;59778;50.310;18.780;2023-04-24T21:01:26;17.70;;;9.30;;
71902;SDS011;59778;50.310;18.780;2023-04-24T21:16:49;16.17;;;8.37;;
71902;SDS011;59778;50.310;18.780;2023-04-24T21:32:11;9.17;;;4.00;;
71902;SDS011;59778;50.310;18.780;2023-04-24T21:47:32;9.57;;;4.63;;
71902;SDS011;59778;50.310;18.780;2023-04-24T22:02:54;12.60;;;6.10;;
71902;SDS011;59778;50.310;18.780;2023-04-24T22:18:15;11.50;;;5.90;;
71902;SDS011;59778;50.310;18.780;2023-04-24T22:33:38;11.57;;;5.87;;
71902;SDS011;59778;50.310;18.780;2023-04-24T22:49:00;12.93;;;5.80;;
71902;SDS011;59778;50.310;18.780;2023-04-24T23:04:22;13.07;;;6.73;;
71902;SDS011;59778;50.310;18.780;2023-04-24T23:19:43;14.53;;;7.00;;
71902;SDS011;59778;50.310;18.780;2023-04-24T23:35:06;18.10;;;8.70;;
71902;SDS011;59778;50.310;18.780;2023-04-24T23:50:28;16.60;;;8.73;;
